createdAt,value
2022-11-29T00:01:16.546Z,96094.59
2022-11-29T00:02:48.363Z,96095.72
2022-11-29T00:04:20.198Z,96099.91
2022-11-29T00:05:51.869Z,96097.38
2022-11-29T00:07:23.631Z,96092.72
2022-11-29T00:08:57.521Z,96091.63
2022-11-29T00:10:29.174Z,96091.81
2022-11-29T00:12:12.766Z,96088.06
2022-11-29T00:13:44.439Z,96088.84
2022-11-29T00:15:16.241Z,96092.72
2022-11-29T00:16:50.511Z,96096.34
2022-11-29T00:18:22.545Z,96092.72
2022-11-29T00:19:54.245Z,96088.72
2022-11-29T00:21:25.947Z,96084.84
2022-11-29T00:22:57.743Z,96089.25
2022-11-29T00:24:32.424Z,96092.47
2022-11-29T00:26:04.683Z,96093.25
2022-11-29T00:27:36.334Z,96090.59
2022-11-29T00:29:08.020Z,96085.63
2022-11-29T00:30:39.693Z,96091.69
2022-11-29T00:32:11.414Z,96087.75
2022-11-29T00:33:43.122Z,96080.56
2022-11-29T00:35:14.828Z,96085.72
2022-11-29T00:36:46.784Z,96085.63
2022-11-29T00:38:18.474Z,96088.94
2022-11-29T00:39:51.505Z,96082.63
2022-11-29T00:41:23.158Z,96073.34
2022-11-29T00:42:54.822Z,96090.16
2022-11-29T00:44:26.510Z,96083.19
2022-11-29T00:45:58.181Z,96083.28
2022-11-29T00:47:29.916Z,96082.53
2022-11-29T00:49:01.606Z,96077.75
2022-11-29T00:50:33.285Z,96081.75
2022-11-29T00:52:05.230Z,96080.53
2022-11-29T00:53:37.273Z,96080.84
2022-11-29T00:55:10.603Z,96084.72
2022-11-29T00:56:42.364Z,96075.66
2022-11-29T00:58:14.121Z,96077.44
2022-11-29T00:59:45.754Z,96083.94
2022-11-29T01:01:17.645Z,96079.97
2022-11-29T01:02:49.428Z,96084.81
2022-11-29T01:04:21.094Z,96080.19
2022-11-29T01:05:53.001Z,96080.19
2022-11-29T01:07:24.726Z,96076.66
2022-11-29T01:08:56.431Z,96083.06
2022-11-29T01:10:29.477Z,96074.09
2022-11-29T01:12:01.168Z,96080.19
2022-11-29T01:13:33.132Z,96078.41
2022-11-29T01:15:05.431Z,96081.84
2022-11-29T01:16:37.183Z,96084.50
2022-11-29T01:18:08.863Z,96086.81
2022-11-29T01:19:40.558Z,96084.59
2022-11-29T01:21:13.720Z,96089.13
2022-11-29T01:22:45.417Z,96088.69
2022-11-29T01:24:17.079Z,96090.91
2022-11-29T01:25:57.664Z,96084.38
2022-11-29T01:27:29.376Z,96087.03
2022-11-29T01:29:01.017Z,96079.06
2022-11-29T01:30:32.747Z,96080.50
2022-11-29T01:32:04.741Z,96084.91
2022-11-29T01:33:36.585Z,96090.53
2022-11-29T01:35:09.038Z,96097.28
2022-11-29T01:36:40.740Z,96088.22
2022-11-29T01:38:12.413Z,96090.66
2022-11-29T01:39:44.129Z,96089.22
2022-11-29T01:41:18.190Z,96091.09
2022-11-29T01:42:49.857Z,96081.81
2022-11-29T01:44:59.031Z,96081.81
2022-11-29T01:46:31.403Z,96087.56
2022-11-29T01:48:03.292Z,96085.81
2022-11-29T01:49:36.434Z,96088.00
2022-11-29T01:51:08.069Z,96085.16
2022-11-29T01:52:39.731Z,96083.94
2022-11-29T01:54:11.486Z,96086.91
2022-11-29T01:55:47.739Z,96089.13
2022-11-29T01:57:20.858Z,96081.94
2022-11-29T01:58:52.579Z,96088.00
2022-11-29T02:00:24.375Z,96091.31
2022-11-29T02:01:56.527Z,96084.13
2022-11-29T02:03:28.201Z,96082.25
2022-11-29T02:04:59.838Z,96076.84
2022-11-29T02:06:31.622Z,96078.72
2022-11-29T02:08:03.344Z,96077.47
2022-11-29T02:09:35.030Z,96077.41
2022-11-29T02:11:19.990Z,96084.38
2022-11-29T02:12:58.961Z,96075.19
2022-11-29T02:14:57.474Z,96077.84
2022-11-29T02:16:30.968Z,96073.00
2022-11-29T02:18:07.824Z,96074.31
2022-11-29T02:20:21.242Z,96073.41
2022-11-29T02:21:53.505Z,96081.53
2022-11-29T02:24:00.897Z,96084.28
2022-11-29T02:25:40.706Z,96078.88
2022-11-29T02:27:30.889Z,96085.47
2022-11-29T02:29:40.010Z,96081.47
2022-11-29T02:31:33.670Z,96085.06
2022-11-29T02:33:32.851Z,96076.03
2022-11-29T02:35:12.600Z,96086.63
2022-11-29T02:36:53.365Z,96089.56
2022-11-29T02:38:33.079Z,96084.56
2022-11-29T02:40:17.010Z,96085.19
2022-11-29T02:41:57.249Z,96093.03
2022-11-29T02:43:47.547Z,96081.31
2022-11-29T02:45:31.005Z,96087.31
2022-11-29T02:47:08.148Z,96085.00
2022-11-29T02:48:49.083Z,96085.13
2022-11-29T02:50:28.338Z,96087.25
2022-11-29T02:52:02.792Z,96081.16
2022-11-29T02:53:36.913Z,96095.19
2022-11-29T02:55:10.589Z,96094.41
2022-11-29T02:56:44.331Z,96097.22
2022-11-29T02:58:19.377Z,96085.19
2022-11-29T02:59:53.745Z,96092.69
2022-11-29T03:01:27.080Z,96086.47
2022-11-29T03:03:02.333Z,96090.66
2022-11-29T03:04:37.901Z,96091.00
2022-11-29T03:06:15.477Z,96089.44
2022-11-29T03:07:50.952Z,96096.16
2022-11-29T03:09:26.145Z,96088.03
2022-11-29T03:11:01.707Z,96088.31
2022-11-29T03:12:39.619Z,96090.31
2022-11-29T03:14:14.758Z,96095.63
2022-11-29T03:15:49.572Z,96089.09
2022-11-29T03:17:27.944Z,96097.50
2022-11-29T03:19:05.645Z,96099.69
2022-11-29T03:20:45.577Z,96097.38
2022-11-29T03:22:21.245Z,96095.97
2022-11-29T03:23:54.760Z,96098.16
2022-11-29T03:25:27.994Z,96100.16
2022-11-29T03:27:01.466Z,96098.00
2022-11-29T03:28:34.609Z,96106.22
2022-11-29T03:30:07.751Z,96102.03
2022-11-29T03:31:41.422Z,96103.91
2022-11-29T03:33:15.440Z,96101.25
2022-11-29T03:34:57.150Z,96104.41
2022-11-29T03:36:34.707Z,96097.22
2022-11-29T03:38:09.618Z,96104.22
2022-11-29T03:39:45.382Z,96107.31
2022-11-29T03:41:20.233Z,96099.94
2022-11-29T03:42:54.993Z,96101.28
2022-11-29T03:44:27.901Z,96098.97
2022-11-29T03:46:00.920Z,96104.84
2022-11-29T03:47:35.337Z,96110.25
2022-11-29T03:49:09.247Z,96101.84
2022-11-29T03:50:42.228Z,96098.63
2022-11-29T03:52:18.734Z,96094.00
2022-11-29T03:53:51.902Z,96099.28
2022-11-29T03:55:30.442Z,96097.88
2022-11-29T03:57:02.736Z,96102.38
2022-11-29T03:58:45.015Z,96105.69
2022-11-29T04:00:17.036Z,96106.03
2022-11-29T04:02:02.777Z,96105.38
2022-11-29T04:03:47.102Z,96103.38
2022-11-29T04:05:23.254Z,96102.28
2022-11-29T04:07:02.486Z,96106.03
2022-11-29T04:08:48.455Z,96097.16
2022-11-29T04:10:32.581Z,96105.44
2022-11-29T04:12:22.293Z,96097.94
2022-11-29T04:14:08.122Z,96096.06
2022-11-29T04:16:03.068Z,96101.25
2022-11-29T04:17:52.261Z,96104.03
2022-11-29T04:19:34.881Z,96106.22
2022-11-29T04:21:19.073Z,96095.63
2022-11-29T04:23:08.598Z,96106.78
2022-11-29T04:25:13.343Z,96103.25
2022-11-29T04:27:12.424Z,96098.78
2022-11-29T04:29:10.485Z,96102.66
2022-11-29T04:30:54.120Z,96100.91
2022-11-29T04:33:08.965Z,96096.13
2022-11-29T04:35:33.631Z,96098.16
2022-11-29T04:37:25.196Z,96103.28
2022-11-29T04:39:42.933Z,96103.28
2022-11-29T04:41:46.457Z,96107.31
2022-11-29T04:43:52.100Z,96107.31
2022-11-29T04:45:59.579Z,96110.28
2022-11-29T04:47:55.851Z,96107.81
2022-11-29T04:49:39.967Z,96109.22
2022-11-29T04:51:17.867Z,96111.09
2022-11-29T04:53:26.363Z,96118.25
2022-11-29T04:55:07.080Z,96119.38
2022-11-29T04:57:08.022Z,96110.50
2022-11-29T04:59:25.564Z,96116.59
2022-11-29T05:01:04.208Z,96125.31
2022-11-29T05:03:46.620Z,96116.59
2022-11-29T05:06:25.230Z,96117.38
2022-11-29T05:07:49.328Z,96123.31
2022-11-29T05:09:50.498Z,96124.59
2022-11-29T05:11:38.642Z,96126.16
2022-11-29T05:13:19.770Z,96130.81
2022-11-29T05:15:34.438Z,96124.94
2022-11-29T05:17:19.078Z,96134.03
2022-11-29T05:18:58.722Z,96123.63
2022-11-29T05:20:36.342Z,96134.69
2022-11-29T05:22:19.885Z,96135.47
2022-11-29T05:23:54.977Z,96141.22
2022-11-29T05:25:37.545Z,96140.13
2022-11-29T05:27:13.277Z,96145.28
2022-11-29T05:28:50.571Z,96145.31
2022-11-29T05:30:22.884Z,96142.97
2022-11-29T05:31:56.902Z,96140.53
2022-11-29T05:33:36.577Z,96142.56
2022-11-29T05:35:48.014Z,96146.31
2022-11-29T05:37:25.789Z,96141.53
2022-11-29T05:39:05.820Z,96142.50
2022-11-29T05:40:46.923Z,96140.16
2022-11-29T05:42:36.794Z,96150.75
2022-11-29T05:44:11.342Z,96150.47
2022-11-29T05:45:44.328Z,96143.72
2022-11-29T05:47:18.917Z,96145.41
2022-11-29T05:48:56.898Z,96146.41
2022-11-29T05:50:30.763Z,96149.44
2022-11-29T05:52:19.653Z,96160.53
2022-11-29T05:53:55.796Z,96155.38
2022-11-29T05:55:35.228Z,96156.56
2022-11-29T05:57:11.816Z,96157.56
2022-11-29T05:58:46.550Z,96155.66
2022-11-29T06:00:19.927Z,96159.03
2022-11-29T06:01:56.180Z,96162.81
2022-11-29T06:03:30.672Z,96165.16
2022-11-29T06:05:06.789Z,96160.00
2022-11-29T06:06:40.451Z,96161.53
2022-11-29T06:08:15.710Z,96160.31
2022-11-29T06:09:50.184Z,96153.59
2022-11-29T06:11:24.238Z,96158.13
2022-11-29T06:13:05.757Z,96160.50
2022-11-29T06:15:10.517Z,96162.19
2022-11-29T06:17:03.552Z,96160.59
2022-11-29T06:19:03.900Z,96146.44
2022-11-29T06:20:43.755Z,96162.63
2022-11-29T06:22:24.763Z,96161.72
2022-11-29T06:24:05.208Z,96164.97
2022-11-29T06:25:49.533Z,96165.28
2022-11-29T06:27:35.447Z,96162.63
2022-11-29T06:29:26.380Z,96165.41
2022-11-29T06:31:07.665Z,96170.06
2022-11-29T06:32:48.123Z,96171.00
2022-11-29T06:34:40.532Z,96171.63
2022-11-29T06:36:16.291Z,96172.09
2022-11-29T06:37:51.682Z,96181.56
2022-11-29T06:39:23.996Z,96178.78
2022-11-29T06:41:01.548Z,96176.13
2022-11-29T06:42:33.954Z,96174.84
2022-11-29T06:44:06.236Z,96173.63
2022-11-29T06:45:38.296Z,96173.63
2022-11-29T06:47:13.334Z,96174.41
2022-11-29T06:48:49.664Z,96176.72
2022-11-29T06:50:29.085Z,96178.47
2022-11-29T06:52:08.876Z,96178.47
2022-11-29T06:53:43.547Z,96187.66
2022-11-29T06:55:17.831Z,96190.78
2022-11-29T06:56:51.873Z,96183.91
2022-11-29T06:58:35.971Z,96184.88
2022-11-29T07:00:11.709Z,96186.88
2022-11-29T07:01:48.670Z,96190.47
2022-11-29T07:03:31.377Z,96193.72
2022-11-29T07:05:10.480Z,96189.97
2022-11-29T07:06:42.800Z,96186.88
2022-11-29T07:08:15.813Z,96192.94
2022-11-29T07:09:49.468Z,96194.50
2022-11-29T07:11:21.753Z,96198.53
2022-11-29T07:12:54.017Z,96190.56
2022-11-29T07:14:26.322Z,96187.59
2022-11-29T07:16:01.635Z,96189.91
2022-11-29T07:17:38.623Z,96195.81
2022-11-29T07:19:15.418Z,96191.59
2022-11-29T07:20:54.953Z,96199.09
2022-11-29T07:22:37.932Z,96201.56
2022-11-29T07:24:17.287Z,96198.59
2022-11-29T07:25:53.237Z,96193.28
2022-11-29T07:27:27.737Z,96195.34
2022-11-29T07:29:06.121Z,96198.59
2022-11-29T07:30:40.617Z,96196.41
2022-11-29T07:32:18.755Z,96202.59
2022-11-29T07:33:54.760Z,96203.38
2022-11-29T07:35:32.012Z,96202.47
2022-11-29T07:37:07.239Z,96201.81
2022-11-29T07:38:49.234Z,96202.00
2022-11-29T07:40:23.464Z,96204.31
2022-11-29T07:41:59.159Z,96208.84
2022-11-29T07:43:37.240Z,96215.69
2022-11-29T07:45:12.998Z,96205.09
2022-11-29T07:46:44.831Z,96210.84
2022-11-29T07:48:16.679Z,96201.34
2022-11-29T07:49:48.707Z,96208.53
2022-11-29T07:51:20.571Z,96212.84
2022-11-29T07:52:53.950Z,96203.34
2022-11-29T07:54:25.837Z,96210.97
2022-11-29T07:55:57.691Z,96204.91
2022-11-29T07:57:29.694Z,96211.44
2022-11-29T07:59:11.800Z,96208.78
2022-11-29T08:00:44.333Z,96217.31
2022-11-29T08:02:28.085Z,96219.66
2022-11-29T08:03:59.840Z,96217.78
2022-11-29T08:05:31.593Z,96222.13
2022-11-29T08:07:06.108Z,96216.81
2022-11-29T08:08:43.792Z,96222.25
2022-11-29T08:10:18.032Z,96227.88
2022-11-29T08:11:50.151Z,96228.97
2022-11-29T08:13:24.709Z,96231.09
2022-11-29T08:15:05.526Z,96229.22
2022-11-29T08:16:37.598Z,96236.72
2022-11-29T08:18:09.541Z,96241.25
2022-11-29T08:20:04.343Z,96232.03
2022-11-29T08:21:36.475Z,96240.47
2022-11-29T08:23:35.344Z,96237.63
2022-11-29T08:25:27.504Z,96237.31
2022-11-29T08:26:59.582Z,96241.97
2022-11-29T08:28:35.587Z,96233.81
2022-11-29T08:30:20.342Z,96243.38
2022-11-29T08:32:02.286Z,96233.22
2022-11-29T08:33:34.754Z,96241.44
2022-11-29T08:35:08.826Z,96235.69
2022-11-29T08:36:40.915Z,96232.41
2022-11-29T08:38:15.853Z,96242.53
2022-11-29T08:39:47.950Z,96239.44
2022-11-29T08:41:21.202Z,96242.69
2022-11-29T08:42:57.309Z,96244.09
2022-11-29T08:44:29.139Z,96243.97
2022-11-29T08:46:06.883Z,96249.41
2022-11-29T08:48:10.302Z,96253.59
2022-11-29T08:49:59.793Z,96255.47
2022-11-29T08:51:31.490Z,96243.78
2022-11-29T08:53:24.853Z,96249.22
2022-11-29T08:55:02.880Z,96245.47
2022-11-29T08:58:33.442Z,96242.81
2022-11-29T09:00:06.510Z,96245.13
2022-11-29T09:01:38.527Z,96234.84
2022-11-29T09:05:34.982Z,96245.09
2022-11-29T09:07:06.808Z,96244.44
2022-11-29T09:09:02.796Z,96245.69
2022-11-29T09:10:46.076Z,96244.13
2022-11-29T09:12:20.081Z,96241.72
2022-11-29T09:13:52.948Z,96242.63
2022-11-29T09:15:26.248Z,96250.25
2022-11-29T09:16:58.026Z,96254.88
2022-11-29T09:18:30.626Z,96250.00
2022-11-29T09:20:02.731Z,96252.06
2022-11-29T09:21:36.691Z,96260.78
2022-11-29T09:23:28.538Z,96253.47
2022-11-29T09:25:00.200Z,96262.22
2022-11-29T09:26:32.461Z,96261.84
2022-11-29T09:28:25.215Z,96262.31
2022-11-29T09:30:08.186Z,96258.28
2022-11-29T09:31:40.272Z,96258.47
2022-11-29T09:33:14.578Z,96260.00
2022-11-29T09:34:49.570Z,96267.81
2022-11-29T09:36:28.568Z,96268.31
2022-11-29T09:38:03.574Z,96268.75
2022-11-29T09:39:38.497Z,96268.44
2022-11-29T09:41:20.605Z,96271.88
2022-11-29T09:42:56.017Z,96270.00
2022-11-29T09:44:37.799Z,96265.28
2022-11-29T09:46:16.325Z,96270.00
2022-11-29T09:48:04.667Z,96271.41
2022-11-29T09:49:54.722Z,96270.91
2022-11-29T09:51:36.721Z,96272.72
2022-11-29T09:53:28.249Z,96278.78
2022-11-29T09:55:05.448Z,96268.19
2022-11-29T09:56:42.782Z,96272.72
2022-11-29T09:58:25.103Z,96274.06
2022-11-29T10:00:02.826Z,96280.22
2022-11-29T10:01:41.690Z,96270.59
2022-11-29T10:03:19.507Z,96271.59
2022-11-29T10:04:53.936Z,96273.28
2022-11-29T10:06:26.855Z,96277.06
2022-11-29T10:08:00.611Z,96271.66
2022-11-29T10:09:34.298Z,96274.75
2022-11-29T10:11:13.313Z,96271.16
2022-11-29T10:12:46.572Z,96273.94
2022-11-29T10:14:20.315Z,96273.16
2022-11-29T10:15:54.095Z,96276.75
2022-11-29T10:17:31.087Z,96277.03
2022-11-29T10:19:04.678Z,96274.38
2022-11-29T10:20:41.544Z,96267.09
2022-11-29T10:22:19.305Z,96274.59
2022-11-29T10:23:52.346Z,96272.16
2022-11-29T10:25:25.891Z,96267.09
2022-11-29T10:26:57.579Z,96271.75
2022-11-29T10:28:31.344Z,96273.25
2022-11-29T10:30:03.153Z,96272.16
2022-11-29T10:31:37.196Z,96272.63
2022-11-29T10:33:12.810Z,96275.41
2022-11-29T10:34:44.748Z,96270.66
2022-11-29T10:36:19.650Z,96265.84
2022-11-29T10:38:22.683Z,96267.50
2022-11-29T10:39:46.074Z,96271.22
2022-11-29T10:41:21.683Z,96264.66
2022-11-29T10:42:55.898Z,96271.16
2022-11-29T10:44:29.866Z,96270.06
2022-11-29T10:46:30.830Z,96261.66
2022-11-29T10:48:15.922Z,96268.31
2022-11-29T10:49:51.926Z,96269.41
2022-11-29T10:51:29.297Z,96266.09
2022-11-29T10:53:04.238Z,96263.25
2022-11-29T10:54:39.943Z,96268.75
2022-11-29T10:56:21.138Z,96268.31
2022-11-29T10:58:14.976Z,96265.72
2022-11-29T11:00:02.642Z,96270.31
2022-11-29T11:01:37.529Z,96265.59
2022-11-29T11:03:32.754Z,96259.53
2022-11-29T11:05:14.383Z,96268.94
2022-11-29T11:06:47.204Z,96265.97
2022-11-29T11:08:18.987Z,96266.31
2022-11-29T11:09:52.295Z,96267.94
2022-11-29T11:11:29.058Z,96263.31
2022-11-29T11:13:08.699Z,96269.97
2022-11-29T11:14:41.028Z,96267.66
2022-11-29T11:16:23.952Z,96265.44
2022-11-29T11:17:57.805Z,96269.41
2022-11-29T11:19:32.997Z,96260.00
2022-11-29T11:21:04.946Z,96274.50
2022-11-29T11:22:45.863Z,96259.03
2022-11-29T11:24:24.475Z,96269.41
2022-11-29T11:25:59.592Z,96266.41
2022-11-29T11:27:32.291Z,96266.09
2022-11-29T11:29:11.464Z,96266.09
2022-11-29T11:31:06.113Z,96261.56
2022-11-29T11:32:37.984Z,96264.31
2022-11-29T11:34:27.505Z,96269.72
2022-11-29T11:36:12.216Z,96275.88
2022-11-29T11:37:45.363Z,96262.88
2022-11-29T11:39:19.847Z,96262.66
2022-11-29T11:40:58.193Z,96265.72
2022-11-29T11:42:37.767Z,96264.06
2022-11-29T11:44:58.340Z,96267.94
2022-11-29T11:46:23.492Z,96276.66
2022-11-29T11:47:56.507Z,96267.81
2022-11-29T11:49:30.314Z,96270.72
2022-11-29T11:51:02.047Z,96273.47
2022-11-29T11:52:40.202Z,96275.28
2022-11-29T11:54:14.321Z,96268.50
2022-11-29T11:55:53.363Z,96270.13
2022-11-29T11:57:25.502Z,96272.84
2022-11-29T11:59:00.335Z,96271.56
2022-11-29T12:02:37.498Z,96273.16
2022-11-29T12:04:11.883Z,96279.97
2022-11-29T12:05:46.280Z,96273.88
2022-11-29T12:07:26.302Z,96276.19
2022-11-29T12:09:30.963Z,96277.34
2022-11-29T12:11:07.518Z,96280.06
2022-11-29T12:12:40.648Z,96280.22
2022-11-29T12:14:22.386Z,96279.69
2022-11-29T12:15:54.231Z,96281.25
2022-11-29T12:17:35.257Z,96281.25
2022-11-29T12:19:12.127Z,96277.22
2022-11-29T12:20:45.954Z,96285.00
2022-11-29T12:22:21.581Z,96280.97
2022-11-29T12:23:54.913Z,96284.53
2022-11-29T12:25:30.193Z,96280.47
2022-11-29T12:27:04.066Z,96284.72
2022-11-29T12:28:38.262Z,96287.19
2022-11-29T12:30:13.339Z,96287.84
2022-11-29T12:31:55.124Z,96286.09
2022-11-29T12:33:31.474Z,96288.38
2022-11-29T12:35:31.581Z,96290.75
2022-11-29T12:37:05.892Z,96283.72
2022-11-29T12:38:48.625Z,96283.72
2022-11-29T12:40:22.625Z,96284.72
2022-11-29T12:41:57.341Z,96292.69
2022-11-29T12:43:32.754Z,96282.09
2022-11-29T12:45:16.108Z,96283.97
2022-11-29T12:46:54.399Z,96283.63
2022-11-29T12:48:36.188Z,96287.38
2022-11-29T12:50:14.536Z,96286.75
2022-11-29T12:51:49.342Z,96283.84
2022-11-29T12:53:28.047Z,96281.31
2022-11-29T12:55:02.657Z,96282.63
2022-11-29T12:56:36.609Z,96287.94
2022-11-29T12:58:11.135Z,96289.28
2022-11-29T12:59:55.209Z,96288.50
2022-11-29T13:01:31.643Z,96285.06
2022-11-29T13:03:08.023Z,96289.28
2022-11-29T13:04:42.851Z,96282.75
2022-11-29T13:06:20.073Z,96281.19
2022-11-29T13:07:59.905Z,96280.09
2022-11-29T13:09:45.246Z,96293.22
2022-11-29T13:11:18.595Z,96279.53
2022-11-29T13:12:51.639Z,96285.84
2022-11-29T13:14:42.661Z,96283.97
2022-11-29T13:16:30.634Z,96284.75
2022-11-29T13:18:04.666Z,96295.88
2022-11-29T13:19:39.095Z,96295.75
2022-11-29T13:21:12.883Z,96288.41
2022-11-29T13:22:47.275Z,96299.22
2022-11-29T13:24:23.664Z,96297.31
2022-11-29T13:25:55.588Z,96303.66
2022-11-29T13:27:28.743Z,96302.66
2022-11-29T13:29:02.839Z,96298.59
2022-11-29T13:30:36.329Z,96298.25
2022-11-29T13:32:14.281Z,96303.00
2022-11-29T13:33:55.386Z,96302.47
2022-11-29T13:35:30.520Z,96301.19
2022-11-29T13:37:08.199Z,96296.34
2022-11-29T13:38:41.600Z,96294.72
2022-11-29T13:40:20.299Z,96300.53
2022-11-29T13:41:55.510Z,96301.09
2022-11-29T13:43:30.730Z,96299.28
2022-11-29T13:45:04.962Z,96296.91
2022-11-29T13:46:44.342Z,96295.59
2022-11-29T13:48:32.602Z,96294.00
2022-11-29T13:50:06.681Z,96293.41
2022-11-29T13:51:38.449Z,96296.66
2022-11-29T13:53:14.773Z,96290.38
2022-11-29T13:54:46.750Z,96300.34
2022-11-29T13:56:48.532Z,96298.00
2022-11-29T13:58:34.563Z,96305.19
2022-11-29T14:00:17.907Z,96295.34
2022-11-29T14:01:51.785Z,96300.78
2022-11-29T14:03:31.659Z,96303.78
2022-11-29T14:05:03.671Z,96305.72
2022-11-29T14:06:35.959Z,96298.88
2022-11-29T14:08:27.059Z,96301.22
2022-11-29T14:09:58.920Z,96300.00
2022-11-29T14:11:32.356Z,96304.84
2022-11-29T14:13:04.926Z,96300.31
2022-11-29T14:14:41.366Z,96307.50
2022-11-29T14:16:17.026Z,96306.09
2022-11-29T14:17:54.898Z,96298.44
2022-11-29T14:19:33.113Z,96308.72
2022-11-29T14:21:05.250Z,96306.22
2022-11-29T14:22:37.090Z,96311.66
2022-11-29T14:24:38.506Z,96312.41
2022-11-29T14:26:29.290Z,96311.91
2022-11-29T14:28:04.843Z,96322.50
2022-11-29T14:29:55.162Z,96317.06
2022-11-29T14:31:49.564Z,96315.00
2022-11-29T14:33:30.265Z,96314.22
2022-11-29T14:35:03.623Z,96318.13
2022-11-29T14:36:43.451Z,96313.47
2022-11-29T14:38:19.342Z,96318.31
2022-11-29T14:39:52.177Z,96319.09
2022-11-29T14:41:29.726Z,96317.22
2022-11-29T14:43:01.590Z,96312.88
2022-11-29T14:44:33.560Z,96310.94
2022-11-29T14:46:08.629Z,96315.25
2022-11-29T14:47:48.000Z,96321.09
2022-11-29T14:49:24.750Z,96313.78
2022-11-29T14:51:07.726Z,96317.97
2022-11-29T14:52:39.892Z,96320.97
2022-11-29T14:54:14.640Z,96315.53
2022-11-29T14:55:48.240Z,96311.00
2022-11-29T14:57:54.843Z,96310.34
2022-11-29T14:59:45.712Z,96312.88
2022-11-29T15:01:18.490Z,96320.50
2022-11-29T15:02:51.757Z,96319.53
2022-11-29T15:04:25.785Z,96321.59
2022-11-29T15:06:03.425Z,96326.00
2022-11-29T15:07:35.195Z,96325.81
2022-11-29T15:09:15.085Z,96330.78
2022-11-29T15:10:49.485Z,96324.00
2022-11-29T15:12:23.347Z,96323.81
2022-11-29T15:13:59.783Z,96328.00
2022-11-29T15:15:56.821Z,96333.31
2022-11-29T15:17:30.675Z,96322.91
2022-11-29T15:19:38.946Z,96325.75
2022-11-29T15:21:16.065Z,96329.44
2022-11-29T15:22:53.927Z,96323.34
2022-11-29T15:24:28.774Z,96338.16
2022-11-29T15:26:01.373Z,96337.53
2022-11-29T15:27:36.219Z,96332.53
2022-11-29T15:29:14.893Z,96333.63
2022-11-29T15:30:46.710Z,96343.97
2022-11-29T15:32:22.409Z,96337.28
2022-11-29T15:33:54.181Z,96343.84
2022-11-29T15:35:27.317Z,96339.91
2022-11-29T15:36:59.393Z,96344.25
2022-11-29T15:38:40.863Z,96340.34
2022-11-29T15:40:13.671Z,96341.31
2022-11-29T15:41:45.344Z,96339.78
2022-11-29T15:43:19.085Z,96347.59
2022-11-29T15:44:50.923Z,96342.09
2022-11-29T15:46:24.572Z,96344.75
2022-11-29T15:48:09.576Z,96343.66
2022-11-29T15:49:41.433Z,96344.47
2022-11-29T15:51:18.677Z,96348.66
2022-11-29T15:52:53.542Z,96347.72
2022-11-29T15:54:29.755Z,96352.06
2022-11-29T15:56:02.848Z,96350.69
2022-11-29T15:57:36.239Z,96354.44
2022-11-29T15:59:09.928Z,96353.03
2022-11-29T16:00:44.054Z,96351.78
2022-11-29T16:02:18.631Z,96352.25
2022-11-29T16:03:52.200Z,96351.75
2022-11-29T16:05:25.289Z,96349.53
2022-11-29T16:06:58.571Z,96347.22
2022-11-29T16:08:32.232Z,96343.19
2022-11-29T16:10:04.892Z,96352.13
2022-11-29T16:11:38.109Z,96350.84
2022-11-29T16:13:30.934Z,96354.53
2022-11-29T16:15:03.311Z,96354.25
2022-11-29T16:16:35.791Z,96354.44
2022-11-29T16:18:15.118Z,96356.00
2022-11-29T16:19:47.180Z,96355.69
2022-11-29T16:21:29.149Z,96358.50
2022-11-29T16:23:11.610Z,96348.84
2022-11-29T16:24:53.215Z,96364.09
2022-11-29T16:26:27.315Z,96362.41
2022-11-29T16:27:59.084Z,96355.25
2022-11-29T16:29:37.489Z,96364.88
2022-11-29T16:31:12.431Z,96365.53
2022-11-29T16:32:49.000Z,96369.13
2022-11-29T16:34:27.085Z,96367.72
2022-11-29T16:36:06.474Z,96367.91
2022-11-29T16:37:44.818Z,96370.06
2022-11-29T16:39:22.209Z,96358.84
2022-11-29T16:41:05.019Z,96370.34
2022-11-29T16:42:36.861Z,96373.16
2022-11-29T16:44:37.652Z,96368.19
2022-11-29T16:46:35.672Z,96366.31
2022-11-29T16:48:40.592Z,96374.56
2022-11-29T16:50:17.673Z,96373.47
2022-11-29T16:51:52.923Z,96377.38
2022-11-29T16:53:32.743Z,96376.44
2022-11-29T16:55:06.443Z,96376.00
2022-11-29T16:56:38.284Z,96371.16
2022-11-29T16:58:11.993Z,96378.31
2022-11-29T16:59:43.785Z,96381.94
2022-11-29T17:01:16.511Z,96382.84
2022-11-29T17:02:51.309Z,96384.41
2022-11-29T17:04:24.803Z,96380.78
2022-11-29T17:05:57.032Z,96387.97
2022-11-29T17:07:29.768Z,96386.41
2022-11-29T17:09:01.659Z,96386.75
2022-11-29T17:10:34.906Z,96386.16
2022-11-29T17:12:12.510Z,96388.63
2022-11-29T17:13:44.288Z,96381.44
2022-11-29T17:15:18.752Z,96387.50
2022-11-29T17:16:51.978Z,96387.06
2022-11-29T17:18:24.102Z,96385.97
2022-11-29T17:19:55.812Z,96380.47
2022-11-29T17:21:29.480Z,96383.94
2022-11-29T17:23:05.333Z,96376.00
2022-11-29T17:24:37.461Z,96379.75
2022-11-29T17:26:13.582Z,96382.22
2022-11-29T17:27:45.320Z,96383.50
2022-11-29T17:31:08.342Z,96388.16
2022-11-29T17:32:42.305Z,96383.16
2022-11-29T17:34:18.311Z,96386.09
2022-11-29T17:35:51.798Z,96392.19
2022-11-29T17:37:23.635Z,96397.34
2022-11-29T17:39:07.475Z,96402.31
2022-11-29T17:40:42.337Z,96398.88
2022-11-29T17:42:23.286Z,96405.28
2022-11-29T17:43:57.989Z,96395.59
2022-11-29T17:45:34.936Z,96401.41
2022-11-29T17:47:15.458Z,96396.44
2022-11-29T17:48:47.449Z,96401.88
2022-11-29T17:50:21.639Z,96396.56
2022-11-29T17:51:55.740Z,96395.16
2022-11-29T17:53:28.813Z,96398.13
2022-11-29T17:55:21.436Z,96404.09
2022-11-29T17:56:56.330Z,96406.88
2022-11-29T17:58:29.614Z,96405.78
2022-11-29T18:00:06.335Z,96406.84
2022-11-29T18:01:43.473Z,96405.16
2022-11-29T18:03:18.291Z,96405.16
2022-11-29T18:04:50.074Z,96407.50
2022-11-29T18:06:22.726Z,96405.94
2022-11-29T18:08:00.610Z,96412.00
2022-11-29T18:09:32.504Z,96411.50
2022-11-29T18:11:06.761Z,96410.13
2022-11-29T18:12:38.576Z,96409.94
2022-11-29T18:14:12.006Z,96420.47
2022-11-29T18:15:43.752Z,96411.28
2022-11-29T18:17:15.515Z,96414.84
2022-11-29T18:18:47.467Z,96422.34
2022-11-29T18:20:20.341Z,96412.66
2022-11-29T18:21:52.126Z,96418.72
2022-11-29T18:23:23.950Z,96411.13
2022-11-29T18:25:09.991Z,96424.84
2022-11-29T18:26:48.840Z,96426.53
2022-11-29T18:28:20.648Z,96428.88
2022-11-29T18:29:54.221Z,96424.34
2022-11-29T18:31:28.304Z,96425.13
2022-11-29T18:33:04.480Z,96421.53
2022-11-29T18:34:39.415Z,96427.47
2022-11-29T18:36:12.432Z,96429.00
2022-11-29T18:38:13.299Z,96421.06
2022-11-29T18:39:40.125Z,96422.16
2022-11-29T18:41:14.254Z,96421.72
2022-11-29T18:42:48.023Z,96422.34
2022-11-29T18:44:21.610Z,96423.06
2022-11-29T18:45:55.052Z,96424.63
2022-11-29T18:47:26.923Z,96424.16
2022-11-29T18:48:59.063Z,96423.56
2022-11-29T18:50:32.846Z,96415.75
2022-11-29T18:52:05.143Z,96428.09
2022-11-29T18:53:37.187Z,96431.97
2022-11-29T18:55:09.447Z,96418.09
2022-11-29T18:56:43.925Z,96426.53
2022-11-29T18:58:15.688Z,96427.81
2022-11-29T18:59:47.800Z,96425.31
2022-11-29T19:01:32.680Z,96426.69
2022-11-29T19:03:04.677Z,96423.41
2022-11-29T19:04:45.676Z,96426.69
2022-11-29T19:06:19.231Z,96428.41
2022-11-29T19:07:54.281Z,96423.91
2022-11-29T19:09:35.135Z,96422.28
2022-11-29T19:11:20.772Z,96431.38
2022-11-29T19:12:52.872Z,96428.13
2022-11-29T19:14:36.901Z,96431.28
2022-11-29T19:16:13.897Z,96430.94
2022-11-29T19:17:51.884Z,96432.03
2022-11-29T19:19:23.915Z,96432.97
2022-11-29T19:21:08.885Z,96429.06